Time;durP1;ratioP1;P1;durP2;ratioP2;P2;SDS_P1;SDS_P2;PMS_P1;PMS_P2;Temp;Humidity;BMP_temperature;BMP_pressure;BME280_temperature;BME280_humidity;BME280_pressure;Samples;Min_cycle;Max_cycle;Signal;HPM_P1;HPM_P2
2021/05/30 00:02:54;;;;;;;0.50;0.50;;;22.00;51.00;;;;;;6342876;28;20034;-67
2021/05/30 00:05:55;;;;;;;0.70;0.70;;;22.00;51.00;;;;;;6329153;28;20027;-66
2021/05/30 00:08:55;;;;;;;1.20;0.80;;;22.00;51.00;;;;;;6316856;28;20342;-66
2021/05/30 00:11:56;;;;;;;0.60;0.55;;;22.00;51.00;;;;;;6334515;28;20016;-66
2021/05/30 00:14:57;;;;;;;0.63;0.63;;;22.00;51.70;;;;;;6342655;28;20028;-66
2021/05/30 00:17:58;;;;;;;0.60;0.60;;;22.00;51.00;;;;;;6341983;28;20034;-66
2021/05/30 00:20:59;;;;;;;0.50;0.50;;;22.00;51.00;;;;;;6341448;28;20023;-67
2021/05/30 00:23:59;;;;;;;0.60;0.60;;;22.00;51.00;;;;;;6340631;28;20050;-66
2021/05/30 00:27:00;;;;;;;0.70;0.50;;;22.00;51.00;;;;;;6340621;28;20035;-66
2021/05/30 00:30:02;;;;;;;0.80;0.60;;;22.00;51.00;;;;;;6341821;28;20085;-66
2021/05/30 00:33:03;;;;;;;0.50;0.50;;;22.10;51.10;;;;;;6317904;28;20599;-67
2021/05/30 00:36:04;;;;;;;0.85;0.52;;;22.00;51.00;;;;;;6322989;28;20030;-66
2021/05/30 00:39:05;;;;;;;0.70;0.68;;;22.00;51.00;;;;;;6338936;28;20026;-66
2021/05/30 00:42:06;;;;;;;0.63;0.63;;;22.00;51.00;;;;;;6326444;28;20023;-66
2021/05/30 00:45:10;;;;;;;1.23;0.73;;;22.00;51.00;;;;;;6316623;28;20024;-66
2021/05/30 00:48:10;;;;;;;0.73;0.57;;;22.00;51.00;;;;;;6337906;28;20036;-66
2021/05/30 00:51:12;;;;;;;0.47;0.47;;;22.00;51.00;;;;;;6338899;28;20051;-66
2021/05/30 00:54:14;;;;;;;0.80;0.60;;;22.00;51.00;;;;;;6303337;28;20543;-66
2021/05/30 00:57:15;;;;;;;0.70;0.60;;;22.00;51.00;;;;;;6318038;28;20468;-66
2021/05/30 01:00:16;;;;;;;0.93;0.68;;;22.00;50.90;;;;;;6340995;28;20032;-66
2021/05/30 01:03:17;;;;;;;0.60;0.60;;;22.00;50.90;;;;;;6341197;28;20036;-66
2021/05/30 01:06:18;;;;;;;0.70;0.70;;;22.00;51.00;;;;;;6341135;28;20539;-67
2021/05/30 01:09:19;;;;;;;0.45;0.45;;;22.00;51.00;;;;;;6339671;28;20020;-66
2021/05/30 01:12:20;;;;;;;0.60;0.55;;;22.00;51.00;;;;;;6333178;28;20039;-66
2021/05/30 01:15:21;;;;;;;0.60;0.60;;;22.00;50.90;;;;;;6316318;28;20477;-67
2021/05/30 01:18:24;;;;;;;0.40;0.40;;;22.00;51.00;;;;;;6331768;28;20098;-66
2021/05/30 01:21:29;;;;;;;0.70;0.60;;;22.00;51.00;;;;;;6341000;28;20027;-66
2021/05/30 01:24:30;;;;;;;0.70;0.50;;;22.00;51.00;;;;;;6315940;28;20106;-66
2021/05/30 01:27:31;;;;;;;0.93;0.80;;;22.00;51.00;;;;;;6321666;28;20564;-67
2021/05/30 01:30:32;;;;;;;0.70;0.63;;;22.00;51.00;;;;;;6341223;28;20036;-66
2021/05/30 01:33:33;;;;;;;0.50;0.50;;;22.00;51.00;;;;;;6325671;28;20029;-67
2021/05/30 01:36:33;;;;;;;0.70;0.70;;;22.00;51.00;;;;;;6315906;28;20027;-66
2021/05/30 01:39:34;;;;;;;1.77;0.45;;;22.00;50.90;;;;;;6333202;28;20039;-66
2021/05/30 01:42:34;;;;;;;0.60;0.60;;;22.00;51.00;;;;;;6321349;28;20023;-66
2021/05/30 01:45:37;;;;;;;0.38;0.38;;;22.00;51.00;;;;;;6341036;28;20081;-66
2021/05/30 01:48:37;;;;;;;0.88;0.65;;;22.00;51.00;;;;;;6340712;28;20026;-66
2021/05/30 01:51:38;;;;;;;0.55;0.50;;;22.00;51.00;;;;;;6340312;28;20043;-66
2021/05/30 01:54:41;;;;;;;0.40;0.40;;;22.00;51.00;;;;;;6338481;28;20493;-67
2021/05/30 01:57:47;;;;;;;0.60;0.60;;;22.00;51.00;;;;;;6340877;28;20016;-66
2021/05/30 02:00:49;;;;;;;0.47;0.47;;;22.00;51.00;;;;;;6340529;28;20472;-66
2021/05/30 02:03:50;;;;;;;0.52;0.45;;;22.00;51.00;;;;;;6343683;28;20035;-66
2021/05/30 02:06:51;;;;;;;0.82;0.63;;;22.00;50.90;;;;;;6345566;28;20027;-66
2021/05/30 02:09:53;;;;;;;0.60;0.60;;;22.00;51.00;;;;;;6343805;28;20042;-66
2021/05/30 02:12:56;;;;;;;0.60;0.50;;;22.00;51.00;;;;;;6339909;28;20127;-66
2021/05/30 02:15:56;;;;;;;0.60;0.60;;;22.00;51.00;;;;;;6320344;28;20488;-66
2021/05/30 02:18:57;;;;;;;0.75;0.65;;;22.00;51.00;;;;;;6331592;28;20034;-66
2021/05/30 02:21:59;;;;;;;0.73;0.50;;;22.00;51.00;;;;;;6344970;28;20147;-66
2021/05/30 02:25:00;;;;;;;0.73;0.52;;;22.00;51.00;;;;;;6344762;28;20535;-66
2021/05/30 02:28:01;;;;;;;0.60;0.60;;;22.00;51.00;;;;;;6344833;28;20040;-66
2021/05/30 02:31:01;;;;;;;0.60;0.60;;;22.00;51.00;;;;;;6344661;28;20500;-66
2021/05/30 02:34:02;;;;;;;0.52;0.50;;;22.00;51.00;;;;;;6345156;28;20028;-66
2021/05/30 02:37:05;;;;;;;1.05;0.60;;;22.00;50.90;;;;;;6344502;28;20476;-66
2021/05/30 02:40:06;;;;;;;0.98;0.55;;;22.00;51.10;;;;;;6333603;28;20013;-66
2021/05/30 02:43:07;;;;;;;0.70;0.50;;;22.00;51.00;;;;;;6319307;28;20077;-67
2021/05/30 02:46:08;;;;;;;0.52;0.50;;;22.00;51.00;;;;;;6319387;28;20024;-66
2021/05/30 02:49:09;;;;;;;0.55;0.43;;;22.00;51.00;;;;;;6328578;28;20094;-66
2021/05/30 02:52:09;;;;;;;0.55;0.55;;;22.00;51.00;;;;;;6341012;28;20120;-66
2021/05/30 02:55:10;;;;;;;1.42;0.60;;;22.00;51.00;;;;;;6328237;28;20031;-65
2021/05/30 02:58:11;;;;;;;0.70;0.70;;;22.00;51.00;;;;;;6344235;28;20112;-66
2021/05/30 03:01:12;;;;;;;1.10;0.73;;;22.00;51.00;;;;;;6318702;28;20071;-66
2021/05/30 03:04:12;;;;;;;0.73;0.55;;;22.00;51.00;;;;;;6314761;28;20032;-66
2021/05/30 03:07:13;;;;;;;0.93;0.50;;;22.00;51.00;;;;;;6325321;28;20079;-66
2021/05/30 03:10:13;;;;;;;0.50;0.50;;;22.00;50.90;;;;;;6343295;28;20634;-67
2021/05/30 03:13:14;;;;;;;0.45;0.45;;;22.00;50.90;;;;;;6343932;28;20020;-66
2021/05/30 03:16:15;;;;;;;0.63;0.52;;;22.00;51.00;;;;;;6343168;28;20060;-66
2021/05/30 03:19:15;;;;;;;0.50;0.50;;;22.00;51.00;;;;;;6343907;28;20472;-66
2021/05/30 03:22:16;;;;;;;1.25;0.70;;;22.00;50.90;;;;;;6344061;28;20051;-66
2021/05/30 03:25:16;;;;;;;0.52;0.52;;;22.00;51.00;;;;;;6343708;28;20095;-66
2021/05/30 03:28:17;;;;;;;0.60;0.60;;;22.00;51.00;;;;;;6343803;28;20030;-66
2021/05/30 03:31:17;;;;;;;1.10;0.63;;;22.00;51.00;;;;;;6342447;28;20019;-66
2021/05/30 03:34:18;;;;;;;0.50;0.50;;;22.00;51.00;;;;;;6340859;28;20226;-67
2021/05/30 03:37:18;;;;;;;0.70;0.70;;;22.00;51.00;;;;;;6318477;28;20016;-67
2021/05/30 03:43:41;;;;;;;0.70;0.70;;;22.00;51.00;;;;;;6344174;28;20723;-66
2021/05/30 03:46:41;;;;;;;0.50;0.50;;;22.00;50.90;;;;;;6322452;27;20103;-65
2021/05/30 03:49:42;;;;;;;0.40;0.40;;;22.00;50.80;;;;;;6321653;28;20598;-65
2021/05/30 03:52:43;;;;;;;0.70;0.60;;;22.00;50.90;;;;;;6330406;28;20091;-66
2021/05/30 03:55:45;;;;;;;1.00;0.60;;;22.00;50.90;;;;;;6304002;28;20024;-66
2021/05/30 03:58:46;;;;;;;0.82;0.60;;;22.00;50.90;;;;;;6316649;28;20032;-66
2021/05/30 04:01:46;;;;;;;0.70;0.50;;;22.00;51.00;;;;;;6337331;28;20104;-66
2021/05/30 04:04:47;;;;;;;0.70;0.60;;;22.00;50.80;;;;;;6340542;28;20085;-66
2021/05/30 04:07:47;;;;;;;0.47;0.47;;;22.00;50.80;;;;;;6315977;28;20548;-66
2021/05/30 04:10:48;;;;;;;0.75;0.60;;;22.00;50.80;;;;;;6324764;28;20026;-66
2021/05/30 04:13:48;;;;;;;0.80;0.50;;;22.00;50.90;;;;;;6342703;28;20457;-66
2021/05/30 04:16:49;;;;;;;0.93;0.50;;;22.00;50.70;;;;;;6326982;28;20028;-66
2021/05/30 04:19:49;;;;;;;0.63;0.40;;;22.00;50.90;;;;;;6316975;28;20024;-66
2021/05/30 04:22:50;;;;;;;0.50;0.50;;;22.00;50.90;;;;;;6317222;28;20081;-66
2021/05/30 04:25:50;;;;;;;0.55;0.50;;;22.00;51.00;;;;;;6317100;28;20016;-66
2021/05/30 04:28:52;;;;;;;0.50;0.50;;;22.00;50.90;;;;;;6316860;28;20099;-65
2021/05/30 04:31:52;;;;;;;2.03;0.57;;;22.00;50.90;;;;;;6331053;28;20084;-66
2021/05/30 04:34:53;;;;;;;3.22;0.85;;;22.00;50.90;;;;;;6341420;28;20036;-66
2021/05/30 04:37:53;;;;;;;0.47;0.47;;;22.00;50.90;;;;;;6320332;28;20074;-66
2021/05/30 04:40:54;;;;;;;0.93;0.65;;;22.00;50.90;;;;;;6320276;28;20244;-67
2021/05/30 04:43:54;;;;;;;0.47;0.40;;;22.00;50.90;;;;;;6341903;28;20434;-66
2021/05/30 04:46:55;;;;;;;0.40;0.40;;;22.00;50.90;;;;;;6341783;28;20387;-66
2021/05/30 04:49:57;;;;;;;0.60;0.60;;;22.00;50.90;;;;;;6341261;28;20023;-66
2021/05/30 04:52:57;;;;;;;0.55;0.50;;;22.00;50.90;;;;;;6324858;28;20040;-66
2021/05/30 04:56:04;;;;;;;0.70;0.60;;;22.00;50.80;;;;;;6293901;28;20491;-66
2021/05/30 04:59:06;;;;;;;;;;;22.00;50.90;;;;;;6317133;28;20047;-66
2021/05/30 05:02:06;;;;;;;0.60;0.45;;;22.00;50.90;;;;;;6315027;28;20002;-65
2021/05/30 05:05:10;;;;;;;0.77;0.50;;;22.00;50.90;;;;;;6317672;28;20026;-65
2021/05/30 05:08:11;;;;;;;1.17;0.90;;;22.00;50.90;;;;;;6324235;28;20054;-66
2021/05/30 05:11:11;;;;;;;0.70;0.60;;;22.00;50.90;;;;;;6315899;28;20047;-66
2021/05/30 05:14:12;;;;;;;0.50;0.40;;;22.00;50.80;;;;;;6339641;28;20107;-66
2021/05/30 05:17:12;;;;;;;0.40;0.40;;;22.00;50.90;;;;;;6335329;28;20028;-66
2021/05/30 05:20:13;;;;;;;0.55;0.52;;;22.00;50.90;;;;;;6316427;28;20441;-65
2021/05/30 05:23:19;;;;;;;0.55;0.47;;;22.00;50.80;;;;;;6300894;28;20494;-66
2021/05/30 05:26:20;;;;;;;0.68;0.60;;;22.00;50.70;;;;;;6290637;28;20562;-66
2021/05/30 05:29:20;;;;;;;0.47;0.47;;;22.00;50.80;;;;;;6336061;28;20031;-66
2021/05/30 05:32:21;;;;;;;0.75;0.55;;;22.00;50.70;;;;;;6336536;28;20428;-66
2021/05/30 05:35:21;;;;;;;0.68;0.57;;;22.00;50.90;;;;;;6315676;28;20366;-66
2021/05/30 05:38:22;;;;;;;1.30;0.43;;;22.00;50.70;;;;;;6332066;28;20541;-66
2021/05/30 05:41:23;;;;;;;0.65;0.45;;;22.00;50.80;;;;;;6325859;28;20469;-65
2021/05/30 05:44:24;;;;;;;0.52;0.50;;;22.00;50.80;;;;;;6341614;28;20184;-66
2021/05/30 05:47:25;;;;;;;0.50;0.50;;;22.00;50.80;;;;;;6344683;28;20106;-66
2021/05/30 05:50:26;;;;;;;0.82;0.50;;;22.00;50.80;;;;;;6345930;28;20028;-66
2021/05/30 05:53:27;;;;;;;1.02;0.50;;;22.00;50.90;;;;;;6343849;28;20032;-66
2021/05/30 05:56:28;;;;;;;0.63;0.57;;;22.00;50.80;;;;;;6345804;28;20420;-66
2021/05/30 05:59:28;;;;;;;0.43;0.43;;;22.00;50.80;;;;;;6326652;28;20039;-66
2021/05/30 06:02:29;;;;;;;0.40;0.40;;;22.00;50.70;;;;;;6338664;28;20024;-66
2021/05/30 06:05:30;;;;;;;0.68;0.60;;;22.00;50.80;;;;;;6343154;28;20035;-65
2021/05/30 06:08:31;;;;;;;0.60;0.60;;;22.00;50.70;;;;;;6320632;28;20032;-66
2021/05/30 06:11:32;;;;;;;0.40;0.40;;;22.00;50.70;;;;;;6323519;28;20032;-68
2021/05/30 06:14:32;;;;;;;0.65;0.65;;;22.00;50.70;;;;;;6322189;28;20024;-70
2021/05/30 06:17:33;;;;;;;0.98;0.50;;;22.00;50.70;;;;;;6319378;28;20016;-71
2021/05/30 06:20:35;;;;;;;0.50;0.45;;;22.00;50.70;;;;;;6344565;28;20031;-70
2021/05/30 06:23:37;;;;;;;0.50;0.50;;;22.00;50.80;;;;;;6344925;28;20099;-70
2021/05/30 06:26:37;;;;;;;0.50;0.50;;;22.00;50.70;;;;;;6346319;28;20465;-71
2021/05/30 06:29:38;;;;;;;0.50;0.40;;;22.00;50.70;;;;;;6344139;28;20023;-70
2021/05/30 06:32:39;;;;;;;0.73;0.50;;;22.00;50.60;;;;;;6344582;28;20023;-70
2021/05/30 06:35:42;;;;;;;0.40;0.40;;;22.00;50.70;;;;;;6344667;28;20028;-70
2021/05/30 06:38:43;;;;;;;0.50;0.40;;;22.00;50.70;;;;;;6345492;28;20027;-70
2021/05/30 06:41:44;;;;;;;0.60;0.45;;;22.00;50.70;;;;;;6321065;28;20472;-70
2021/05/30 06:44:45;;;;;;;0.70;0.60;;;22.00;50.70;;;;;;6320556;28;20035;-70
2021/05/30 06:47:45;;;;;;;0.55;0.50;;;22.00;50.70;;;;;;6318978;28;20028;-70
2021/05/30 06:51:12;;;;;;;0.50;0.43;;;22.00;50.80;;;;;;6318610;28;20120;-70
2021/05/30 06:54:09;;;;;;;0.40;0.40;;;22.00;50.60;;;;;;6327807;28;20026;-70
2021/05/30 06:57:10;;;;;;;0.98;0.43;;;22.00;50.70;;;;;;6344125;28;20526;-71
2021/05/30 07:00:11;;;;;;;0.52;0.40;;;22.00;50.70;;;;;;6328464;28;20016;-70
2021/05/30 07:03:11;;;;;;;0.57;0.50;;;22.00;50.70;;;;;;6318593;28;20012;-71
2021/05/30 07:06:13;;;;;;;0.35;0.35;;;22.00;50.70;;;;;;6343810;28;20026;-70
2021/05/30 07:09:13;;;;;;;0.60;0.55;;;22.00;50.70;;;;;;6345053;28;20031;-71
2021/05/30 07:12:14;;;;;;;0.68;0.47;;;22.00;50.60;;;;;;6343537;28;20396;-71
2021/05/30 07:15:15;;;;;;;0.90;0.50;;;22.00;50.60;;;;;;6332524;28;20548;-67
2021/05/30 07:18:16;;;;;;;0.50;0.50;;;22.00;50.60;;;;;;6319129;28;20508;-66
2021/05/30 07:21:16;;;;;;;0.60;0.60;;;22.00;50.70;;;;;;6317465;28;20016;-66
2021/05/30 07:24:17;;;;;;;0.50;0.50;;;22.00;50.70;;;;;;6319130;28;20122;-64
2021/05/30 07:27:17;;;;;;;0.70;0.60;;;22.00;50.70;;;;;;6344549;28;20023;-66
2021/05/30 07:30:19;;;;;;;0.63;0.40;;;22.00;50.70;;;;;;6334002;28;20028;-66
2021/05/30 07:33:19;;;;;;;0.68;0.52;;;22.00;50.70;;;;;;6322603;28;20028;-66
2021/05/30 07:36:20;;;;;;;0.47;0.38;;;22.00;50.50;;;;;;6343876;28;20081;-66
2021/05/30 07:39:21;;;;;;;0.60;0.50;;;22.00;50.60;;;;;;6340531;28;20586;-66
2021/05/30 07:42:21;;;;;;;0.43;0.43;;;22.00;50.60;;;;;;6318460;28;20056;-66
2021/05/30 07:45:22;;;;;;;0.77;0.68;;;22.00;50.60;;;;;;6325388;28;20026;-66
2021/05/30 07:48:23;;;;;;;0.50;0.50;;;22.00;50.60;;;;;;6343223;28;20027;-68
2021/05/30 07:51:24;;;;;;;1.25;0.50;;;22.00;50.50;;;;;;6302848;28;20044;-68
2021/05/30 07:54:25;;;;;;;0.40;0.32;;;22.00;50.70;;;;;;6308478;28;20436;-68
2021/05/30 07:57:41;;;;;;;0.50;0.50;;;22.00;50.70;;;;;;6315450;28;20077;-68
2021/05/30 08:00:57;;;;;;;0.73;0.60;;;22.00;50.80;;;;;;6316237;28;20035;-69
2021/05/30 08:04:28;;;;;;;2.42;0.55;;;22.00;50.80;;;;;;6317577;28;20024;-68
2021/05/30 08:07:31;;;;;;;0.93;0.50;;;22.10;51.40;;;;;;6316470;28;20135;-66
2021/05/30 08:10:42;;;;;;;2.33;0.30;;;22.10;50.80;;;;;;6320079;28;20491;-65
2021/05/30 08:18:16;;;;;;;2.80;0.60;;;22.10;50.60;;;;;;6317166;28;20405;-66
2021/05/30 08:21:25;;;;;;;2.40;0.70;;;22.10;50.50;;;;;;6318425;28;20059;-66
2021/05/30 08:24:37;;;;;;;3.53;0.63;;;22.10;50.50;;;;;;6316563;28;20522;-65
2021/05/30 08:27:47;;;;;;;1.52;0.50;;;22.10;50.60;;;;;;6318697;28;20024;-66
2021/05/30 08:31:01;;;;;;;1.15;0.60;;;22.10;50.70;;;;;;6317099;28;20027;-66
2021/05/30 08:34:12;;;;;;;4.60;1.17;;;22.20;50.80;;;;;;6342417;28;20531;-71
2021/05/30 08:37:25;;;;;;;32.92;2.33;;;22.20;50.90;;;;;;6330084;28;20051;-66
2021/05/30 08:41:02;;;;;;;20.45;2.17;;;22.20;51.90;;;;;;6322521;28;20572;-66
2021/05/30 08:44:42;;;;;;;13.95;1.95;;;22.20;51.10;;;;;;6304253;28;20037;-70
2021/05/30 08:48:23;;;;;;;15.30;2.25;;;22.20;50.90;;;;;;6329068;28;20028;-65
2021/05/30 08:52:21;;;;;;;13.30;1.58;;;22.20;50.80;;;;;;6303853;28;20052;-65
2021/05/30 08:55:32;;;;;;;10.93;1.60;;;22.20;50.70;;;;;;6317530;28;20507;-65
2021/05/30 08:58:46;;;;;;;22.58;2.30;;;22.20;50.80;;;;;;6321201;28;20024;-65
2021/05/30 09:01:59;;;;;;;20.38;1.77;;;22.20;51.50;;;;;;6313594;28;20028;-66
2021/05/30 09:05:23;;;;;;;7.10;1.25;;;22.30;51.10;;;;;;6292452;28;20080;-70
2021/05/30 09:08:54;;;;;;;3.42;1.02;;;22.30;51.60;;;;;;6317104;28;20036;-71
2021/05/30 09:11:54;;;;;;;6.95;1.35;;;22.30;51.10;;;;;;6328243;28;20118;-70
2021/05/30 09:14:57;;;;;;;7.45;1.13;;;22.30;50.90;;;;;;6310173;28;20028;-67
2021/05/30 09:18:17;;;;;;;3.05;1.25;;;22.30;50.90;;;;;;6310484;28;20021;-70
2021/05/30 09:21:20;;;;;;;6.18;1.40;;;22.30;51.00;;;;;;6315467;28;20103;-70
2021/05/30 09:24:26;;;;;;;5.20;1.10;;;22.20;51.00;;;;;;6302584;28;20112;-70
2021/05/30 09:27:40;;;;;;;5.25;1.00;;;22.20;51.10;;;;;;6315349;28;20443;-67
2021/05/30 09:30:49;;;;;;;4.40;1.00;;;22.20;51.10;;;;;;6341367;28;20388;-70
2021/05/30 09:33:55;;;;;;;3.63;1.33;;;22.20;51.10;;;;;;6323409;28;20028;-66
2021/05/30 09:37:12;;;;;;;1.70;0.73;;;22.20;51.10;;;;;;6320690;28;20038;-64
2021/05/30 09:44:37;;;;;;;3.97;0.90;;;22.20;51.00;;;;;;6310743;28;20029;-65
2021/05/30 09:47:53;;;;;;;6.82;1.42;;;22.20;51.00;;;;;;6307158;28;20076;-70
2021/05/30 09:51:04;;;;;;;7.32;1.30;;;22.20;51.00;;;;;;6316336;28;20055;-69
2021/05/30 09:54:19;;;;;;;2.45;1.05;;;22.20;51.70;;;;;;6321483;28;20055;-68
2021/05/30 09:57:21;;;;;;;5.53;1.13;;;22.20;51.00;;;;;;6328398;28;20020;-69
2021/05/30 10:00:23;;;;;;;3.50;0.95;;;22.20;51.50;;;;;;6314930;28;20102;-65
2021/05/30 10:03:40;;;;;;;14.75;1.90;;;22.20;51.00;;;;;;6331184;28;20304;-66
2021/05/30 10:06:55;;;;;;;10.32;1.38;;;22.20;50.90;;;;;;6339653;28;20426;-66
2021/05/30 10:10:16;;;;;;;8.35;1.35;;;22.20;50.90;;;;;;6319397;28;20020;-66
2021/05/30 10:13:29;;;;;;;4.93;1.33;;;22.20;50.90;;;;;;6324210;28;20062;-66
2021/05/30 10:16:46;;;;;;;8.23;1.73;;;22.20;50.90;;;;;;6315205;28;20032;-66
2021/05/30 10:19:51;;;;;;;5.38;1.20;;;22.20;51.00;;;;;;6323062;28;20465;-69
2021/05/30 10:23:08;;;;;;;13.20;1.58;;;22.20;50.90;;;;;;6317367;28;20162;-70
2021/05/30 10:26:25;;;;;;;4.72;1.15;;;22.30;51.00;;;;;;6347562;28;20043;-66
2021/05/30 10:30:13;;;;;;;8.98;1.15;;;22.20;50.90;;;;;;6342373;28;20512;-67
2021/05/30 10:33:27;;;;;;;8.50;1.20;;;22.20;50.90;;;;;;6339039;28;20472;-67
2021/05/30 10:36:41;;;;;;;5.80;1.45;;;22.20;50.90;;;;;;6309826;28;20025;-66
2021/05/30 10:39:56;;;;;;;3.95;0.88;;;22.20;50.90;;;;;;6321577;28;20123;-67
2021/05/30 10:43:24;;;;;;;7.97;1.20;;;22.20;50.90;;;;;;6322654;28;20023;-66
2021/05/30 10:46:53;;;;;;;5.65;1.23;;;22.30;51.00;;;;;;6317126;28;20035;-67
2021/05/30 10:50:20;;;;;;;4.15;1.17;;;22.20;50.90;;;;;;6322039;28;20008;-67
2021/05/30 10:53:56;;;;;;;4.00;1.30;;;22.20;50.90;;;;;;6324562;28;20131;-67
2021/05/30 10:56:58;;;;;;;5.38;1.10;;;22.20;51.60;;;;;;6313796;28;20059;-67
2021/05/30 10:59:59;;;;;;;7.82;1.08;;;22.20;50.90;;;;;;6329274;28;20028;-67
2021/05/30 11:03:14;;;;;;;4.30;1.02;;;22.20;50.90;;;;;;6319542;28;20413;-67
2021/05/30 11:07:11;;;;;;;5.53;1.00;;;22.20;50.90;;;;;;6321788;28;20110;-66
2021/05/30 11:10:18;;;;;;;7.65;1.35;;;22.20;50.90;;;;;;6335592;28;20044;-69
2021/05/30 11:13:27;;;;;;;2.20;0.90;;;22.20;50.90;;;;;;6349695;28;20465;-70
2021/05/30 11:17:10;;;;;;;4.82;1.27;;;22.20;50.90;;;;;;6329659;28;20028;-71
2021/05/30 11:21:13;;;;;;;4.05;0.85;;;22.20;50.90;;;;;;6329427;28;20036;-70
2021/05/30 11:25:31;;;;;;;5.28;0.95;;;22.20;50.90;;;;;;6329210;28;20043;-70
2021/05/30 11:28:34;;;;;;;3.63;0.68;;;22.20;51.00;;;;;;6299877;28;20120;-70
2021/05/30 11:32:23;;;;;;;3.28;0.70;;;22.20;51.10;;;;;;6320360;28;20028;-66
2021/05/30 11:35:31;;;;;;;1.20;0.68;;;22.20;51.10;;;;;;6321557;28;20111;-66
2021/05/30 11:38:57;;;;;;;5.75;1.40;;;22.20;51.20;;;;;;6318464;28;20628;-67
2021/05/30 11:41:58;;;;;;;5.68;0.60;;;22.20;51.20;;;;;;6318562;28;20129;-66
2021/05/30 11:44:58;;;;;;;4.47;1.20;;;22.20;51.20;;;;;;6337968;28;20454;-66
2021/05/30 11:48:06;;;;;;;5.43;0.88;;;22.20;51.20;;;;;;6339706;28;20027;-66
2021/05/30 11:51:07;;;;;;;7.20;1.02;;;22.20;51.10;;;;;;6331493;28;20117;-66
2021/05/30 11:54:07;;;;;;;1.92;0.68;;;22.20;51.20;;;;;;6317465;28;20114;-66
2021/05/30 11:57:11;;;;;;;10.20;1.33;;;22.20;51.10;;;;;;6340827;27;20077;-66
2021/05/30 12:00:14;;;;;;;3.17;0.82;;;22.20;51.10;;;;;;6334842;28;20024;-67
2021/05/30 12:03:15;;;;;;;1.95;0.80;;;22.20;51.10;;;;;;6316863;28;20358;-66
2021/05/30 12:06:16;;;;;;;9.32;1.00;;;22.20;51.10;;;;;;6314940;28;20012;-65
2021/05/30 12:09:17;;;;;;;5.60;1.00;;;22.20;51.10;;;;;;6315225;28;20507;-65
2021/05/30 12:12:25;;;;;;;8.48;1.20;;;22.20;51.00;;;;;;6316784;28;20160;-65
2021/05/30 12:15:27;;;;;;;3.03;0.75;;;22.20;51.00;;;;;;6331174;28;20380;-65
2021/05/30 12:18:27;;;;;;;5.88;0.70;;;22.20;51.20;;;;;;6318183;28;20020;-66
2021/05/30 12:21:45;;;;;;;4.60;0.82;;;22.30;51.30;;;;;;6328614;28;20030;-65
2021/05/30 12:24:46;;;;;;;2.97;1.10;;;22.30;51.10;;;;;;6317877;28;20070;-65
2021/05/30 12:27:46;;;;;;;2.85;0.90;;;22.30;51.00;;;;;;6323401;28;20028;-65
2021/05/30 12:30:52;;;;;;;3.17;0.90;;;22.30;51.30;;;;;;6314818;28;20405;-65
2021/05/30 12:34:01;;;;;;;1.38;0.70;;;22.30;51.30;;;;;;6316658;28;20063;-65
2021/05/30 12:37:01;;;;;;;4.78;1.05;;;22.30;51.30;;;;;;6318739;28;20610;-65
2021/05/30 12:40:02;;;;;;;3.67;1.00;;;22.30;51.20;;;;;;6316504;28;20016;-65
2021/05/30 12:43:03;;;;;;;4.57;0.90;;;22.30;51.20;;;;;;6313416;28;20738;-65
2021/05/30 12:46:07;;;;;;;3.92;0.93;;;22.30;51.20;;;;;;6334817;28;20028;-73
2021/05/30 12:49:15;;;;;;;4.57;1.17;;;22.30;51.20;;;;;;6340421;28;20024;-67
2021/05/30 12:52:16;;;;;;;4.00;1.10;;;22.30;51.30;;;;;;6308898;28;20429;-69
2021/05/30 12:55:19;;;;;;;7.13;1.00;;;22.30;51.30;;;;;;6296796;28;20233;-69
2021/05/30 12:58:20;;;;;;;8.38;0.93;;;22.30;51.30;;;;;;6324870;28;20012;-69
2021/05/30 13:01:24;;;;;;;3.60;1.00;;;22.30;51.30;;;;;;6321149;28;20031;-71
2021/05/30 13:04:55;;;;;;;3.63;1.30;;;22.30;51.30;;;;;;6338745;28;20034;-71
2021/05/30 13:07:56;;;;;;;4.30;1.08;;;22.30;51.30;;;;;;6311546;28;20028;-71
2021/05/30 13:10:59;;;;;;;2.92;0.85;;;22.30;51.30;;;;;;6322171;28;20377;-71
2021/05/30 13:13:59;;;;;;;7.78;1.17;;;22.30;51.40;;;;;;6322157;28;20432;-70
2021/05/30 13:17:23;;;;;;;2.88;0.98;;;22.30;51.40;;;;;;6332791;28;20084;-70
2021/05/30 13:20:29;;;;;;;3.08;0.82;;;22.30;51.40;;;;;;6299408;28;20027;-70
2021/05/30 13:23:31;;;;;;;2.45;0.80;;;22.30;51.50;;;;;;6322335;28;20758;-70
2021/05/30 13:26:58;;;;;;;1.38;0.88;;;22.30;51.50;;;;;;6342832;28;20024;-70
2021/05/30 13:30:18;;;;;;;3.63;0.77;;;22.30;51.50;;;;;;6317764;28;20031;-70
2021/05/30 13:33:19;;;;;;;6.07;1.05;;;22.30;51.50;;;;;;6338192;28;20047;-70
2021/05/30 13:36:22;;;;;;;6.32;1.00;;;22.30;51.60;;;;;;6324962;28;20058;-70
2021/05/30 13:39:23;;;;;;;1.88;0.70;;;22.30;51.90;;;;;;6338858;28;20380;-69
2021/05/30 13:42:24;;;;;;;2.08;0.70;;;22.30;51.60;;;;;;6330193;28;20020;-69
2021/05/30 13:45:25;;;;;;;4.28;0.70;;;22.30;51.60;;;;;;6317762;28;20245;-70
2021/05/30 13:48:25;;;;;;;3.83;1.05;;;22.30;51.60;;;;;;6325957;28;20079;-70
2021/05/30 13:51:28;;;;;;;2.45;0.63;;;22.30;51.60;;;;;;6318058;28;20606;-68
2021/05/30 13:54:28;;;;;;;1.90;0.98;;;22.30;51.50;;;;;;6320933;28;20568;-67
2021/05/30 13:57:29;;;;;;;3.03;1.05;;;22.30;51.40;;;;;;6320190;28;20016;-69
2021/05/30 14:00:31;;;;;;;3.45;1.00;;;22.30;50.70;;;;;;6315513;28;20035;-68
2021/05/30 14:03:31;;;;;;;1.77;0.90;;;22.30;49.60;;;;;;6334160;28;20051;-71
2021/05/30 14:06:32;;;;;;;2.25;1.00;;;22.30;49.80;;;;;;6323400;28;20019;-69
2021/05/30 14:09:32;;;;;;;4.47;0.90;;;22.30;49.60;;;;;;6326149;28;20430;-69
2021/05/30 14:12:33;;;;;;;5.45;1.23;;;22.30;49.50;;;;;;6339986;28;20032;-69
2021/05/30 14:15:34;;;;;;;3.20;1.13;;;22.30;49.00;;;;;;6318737;28;20032;-68
2021/05/30 14:18:35;;;;;;;1.73;0.90;;;22.30;48.20;;;;;;6330601;28;20024;-69
2021/05/30 14:21:37;;;;;;;3.40;0.95;;;22.30;47.80;;;;;;6320670;28;20012;-69
2021/05/30 14:24:40;;;;;;;3.58;1.02;;;22.30;47.00;;;;;;6317292;28;20054;-67
2021/05/30 14:27:42;;;;;;;5.38;1.02;;;22.30;49.10;;;;;;6330631;28;20027;-68
2021/05/30 14:30:43;;;;;;;2.45;1.00;;;22.30;49.30;;;;;;6317531;28;20560;-69
2021/05/30 14:33:44;;;;;;;1.17;0.93;;;22.30;49.40;;;;;;6333952;28;20032;-68
2021/05/30 14:36:44;;;;;;;3.30;0.90;;;22.30;50.20;;;;;;6319812;28;20030;-69
2021/05/30 14:39:48;;;;;;;2.08;0.88;;;22.30;49.50;;;;;;6325785;28;20111;-68
2021/05/30 14:42:50;;;;;;;2.30;0.80;;;22.30;49.70;;;;;;6331602;28;20072;-66
2021/05/30 14:45:50;;;;;;;2.58;0.85;;;22.30;49.60;;;;;;6320406;28;20044;-67
2021/05/30 14:48:56;;;;;;;3.13;1.17;;;22.30;49.40;;;;;;6334738;28;20046;-67
2021/05/30 14:51:56;;;;;;;4.30;0.70;;;22.30;49.60;;;;;;6317229;28;20056;-64
2021/05/30 14:54:57;;;;;;;3.55;0.75;;;22.30;49.80;;;;;;6316615;28;20406;-64
2021/05/30 14:57:58;;;;;;;2.75;0.77;;;22.30;50.10;;;;;;6329949;28;20012;-66
2021/05/30 15:00:59;;;;;;;6.43;0.88;;;22.30;50.20;;;;;;6318662;28;20092;-66
2021/05/30 15:04:00;;;;;;;2.92;0.90;;;22.30;50.30;;;;;;6317960;28;20685;-66
2021/05/30 15:07:00;;;;;;;1.73;0.80;;;22.30;49.50;;;;;;6318627;28;20028;-66
2021/05/30 15:10:02;;;;;;;3.75;0.80;;;22.30;49.90;;;;;;6318702;28;20085;-66
2021/05/30 15:13:03;;;;;;;4.35;1.10;;;22.30;50.00;;;;;;6315098;28;20031;-66
2021/05/30 15:16:04;;;;;;;2.53;0.88;;;22.30;50.40;;;;;;6317528;28;20020;-65
2021/05/30 15:19:04;;;;;;;2.35;1.10;;;22.30;50.50;;;;;;6335122;28;20562;-65
2021/05/30 15:22:05;;;;;;;2.38;0.70;;;22.30;50.50;;;;;;6316559;28;20385;-65
2021/05/30 15:25:07;;;;;;;3.92;0.73;;;22.20;50.50;;;;;;6317397;28;20024;-65
2021/05/30 15:28:08;;;;;;;1.27;0.70;;;22.20;50.50;;;;;;6315630;28;20570;-65
2021/05/30 15:31:08;;;;;;;5.13;0.90;;;22.20;50.50;;;;;;6317185;28;20028;-65
2021/05/30 15:34:09;;;;;;;1.40;0.90;;;22.20;50.60;;;;;;6315803;28;20028;-66
2021/05/30 15:37:11;;;;;;;2.15;0.80;;;22.20;50.40;;;;;;6315048;28;20041;-65
2021/05/30 15:40:12;;;;;;;2.25;0.60;;;22.20;50.60;;;;;;6315537;28;20028;-65
2021/05/30 15:43:13;;;;;;;4.05;0.63;;;22.20;50.70;;;;;;6316903;28;20097;-65
2021/05/30 15:46:15;;;;;;;1.13;0.60;;;22.20;50.70;;;;;;6307033;28;20405;-65
2021/05/30 15:49:15;;;;;;;1.63;0.80;;;22.20;50.70;;;;;;6314004;28;20025;-65
2021/05/30 15:52:16;;;;;;;3.63;0.90;;;22.20;50.80;;;;;;6310441;28;20071;-65
2021/05/30 15:55:16;;;;;;;1.15;0.77;;;22.20;50.80;;;;;;6313670;28;20511;-67
2021/05/30 15:58:18;;;;;;;1.02;0.70;;;22.20;50.80;;;;;;6321477;28;20652;-65
2021/05/30 16:01:21;;;;;;;5.43;0.80;;;22.20;50.90;;;;;;6322457;28;20016;-65
2021/05/30 16:04:21;;;;;;;1.92;0.52;;;22.20;50.90;;;;;;6314056;28;20024;-64
2021/05/30 16:07:22;;;;;;;1.60;0.80;;;22.20;51.00;;;;;;6329590;28;20038;-66
2021/05/30 16:10:23;;;;;;;4.20;1.10;;;22.20;50.90;;;;;;6336773;28;20591;-66
2021/05/30 16:13:24;;;;;;;6.57;0.90;;;22.20;50.90;;;;;;6315843;28;20115;-66
2021/05/30 16:16:24;;;;;;;4.35;1.20;;;22.10;50.90;;;;;;6329091;28;20512;-66